Time;durP1;ratioP1;P1;durP2;ratioP2;P2;SDS_P1;SDS_P2;PMS_P1;PMS_P2;Temp;Humidity;BMP_temperature;BMP_pressure;BME280_temperature;BME280_humidity;BME280_pressure;Samples;Min_cycle;Max_cycle;Signal;HPM_P1;HPM_P2
2023/07/08 00:01:45;;;;;;;4.57;2.10;;;19.70;92.30;;;;;;5040455;28;20091;-76
2023/07/08 00:04:30;;;;;;;4.30;2.50;;;19.60;91.20;;;;;;5022480;28;20052;-75
2023/07/08 00:07:17;;;;;;;3.72;2.30;;;19.50;91.80;;;;;;5039503;28;20041;-76
2023/07/08 00:10:13;;;;;;;4.70;2.50;;;19.50;91.90;;;;;;5013748;28;20379;-75
2023/07/08 00:12:59;;;;;;;4.72;2.53;;;19.50;92.10;;;;;;5028955;28;20053;-76
2023/07/08 00:15:45;;;;;;;4.45;2.35;;;19.50;92.50;;;;;;5037386;28;20042;-76
2023/07/08 00:18:31;;;;;;;4.03;3.08;;;19.40;92.90;;;;;;5032659;28;20139;-76
2023/07/08 00:21:18;;;;;;;6.50;2.65;;;19.30;93.40;;;;;;5040367;28;20155;-76
2023/07/08 00:24:05;;;;;;;5.88;2.38;;;19.20;93.40;;;;;;5013937;28;20065;-76
2023/07/08 00:26:52;;;;;;;4.85;2.30;;;19.20;93.80;;;;;;5043217;28;20052;-75
2023/07/08 00:29:38;;;;;;;4.40;2.30;;;19.20;93.60;;;;;;5029661;28;20741;-76
2023/07/08 00:32:26;;;;;;;6.07;2.80;;;19.20;93.70;;;;;;5035861;28;20401;-75
2023/07/08 00:35:12;;;;;;;;;;;19.20;94.00;;;;;;5037332;28;20040;-76
2023/07/08 00:38:12;;;;;;;3.30;2.67;;;19.20;93.80;;;;;;5040329;28;19920;-76
2023/07/08 00:41:14;;;;;;;3.85;2.65;;;19.10;93.70;;;;;;5028793;28;20049;-76
2023/07/08 00:44:00;;;;;;;4.47;2.67;;;19.10;93.80;;;;;;5033586;28;20041;-76
2023/07/08 00:47:03;;;;;;;5.20;2.67;;;19.00;94.10;;;;;;5035320;28;20114;-76
2023/07/08 00:49:58;;;;;;;4.75;3.10;;;19.00;94.20;;;;;;5025272;28;20029;-75
2023/07/08 00:52:45;;;;;;;5.85;3.00;;;18.90;94.20;;;;;;5020398;28;20046;-76
2023/07/08 00:55:31;;;;;;;5.60;2.80;;;18.90;94.40;;;;;;5020218;28;20045;-77
2023/07/08 00:58:18;;;;;;;4.82;2.97;;;18.90;94.60;;;;;;5041560;28;20037;-77
2023/07/08 01:01:06;;;;;;;3.77;2.57;;;18.80;94.50;;;;;;5031716;28;20052;-75
2023/07/08 01:04:21;;;;;;;4.40;2.67;;;18.80;94.60;;;;;;5042939;28;20115;-75
2023/07/08 01:07:08;;;;;;;5.25;2.40;;;18.80;94.80;;;;;;5043208;28;20933;-75
2023/07/08 01:10:01;;;;;;;3.55;2.20;;;18.70;94.80;;;;;;5020669;28;20041;-75
2023/07/08 01:12:48;;;;;;;6.22;2.97;;;18.70;94.80;;;;;;5028329;28;20045;-76
2023/07/08 01:15:39;;;;;;;4.53;2.90;;;18.60;95.50;;;;;;5040951;28;20037;-77
2023/07/08 01:18:25;;;;;;;3.50;2.45;;;18.50;95.50;;;;;;5009968;28;20541;-76
2023/07/08 01:21:37;;;;;;;4.07;2.63;;;18.50;95.90;;;;;;5030991;28;20374;-76
2023/07/08 01:24:23;;;;;;;6.28;2.90;;;18.50;96.00;;;;;;5045594;28;20083;-77
2023/07/08 01:27:13;;;;;;;6.22;2.70;;;18.50;96.10;;;;;;5041840;28;20048;-75
2023/07/08 01:29:59;;;;;;;7.18;3.00;;;18.50;96.10;;;;;;5014847;28;20069;-75
2023/07/08 01:32:49;;;;;;;7.30;2.97;;;18.50;96.10;;;;;;5027556;28;20033;-76
2023/07/08 01:35:35;;;;;;;5.88;2.70;;;18.50;96.30;;;;;;5042183;28;20044;-76
2023/07/08 01:38:24;;;;;;;5.30;3.00;;;18.30;96.50;;;;;;5032352;28;20060;-76
2023/07/08 01:41:15;;;;;;;4.03;2.70;;;18.30;96.50;;;;;;5025684;28;20132;-74
2023/07/08 01:44:01;;;;;;;4.45;2.50;;;18.30;96.50;;;;;;5014257;28;20041;-75
2023/07/08 01:46:47;;;;;;;5.10;2.60;;;18.20;96.90;;;;;;5040665;28;20033;-75
2023/07/08 01:49:33;;;;;;;4.05;2.78;;;18.20;96.80;;;;;;5015274;28;20034;-74
2023/07/08 01:52:19;;;;;;;6.28;3.20;;;18.20;97.10;;;;;;5024572;28;20428;-76
2023/07/08 01:55:05;;;;;;;5.35;2.92;;;18.10;97.30;;;;;;5032380;28;20065;-75
2023/07/08 01:57:52;;;;;;;4.47;2.75;;;17.90;97.50;;;;;;5039246;28;20136;-76
2023/07/08 02:00:39;;;;;;;4.85;2.90;;;18.00;97.50;;;;;;5020792;28;20037;-75
2023/07/08 02:03:26;;;;;;;4.93;2.83;;;18.00;97.50;;;;;;5027068;28;20033;-75
2023/07/08 02:06:12;;;;;;;6.53;3.28;;;17.80;97.80;;;;;;5025098;28;20071;-75
2023/07/08 02:08:59;;;;;;;4.90;2.65;;;17.70;97.90;;;;;;5015463;28;20049;-75
2023/07/08 02:11:45;;;;;;;7.40;3.40;;;17.70;97.90;;;;;;5041947;28;20044;-75
2023/07/08 02:14:31;;;;;;;4.75;2.78;;;17.70;98.20;;;;;;5030265;28;20485;-75
2023/07/08 02:17:17;;;;;;;4.93;2.70;;;17.80;98.00;;;;;;5034392;28;20049;-75
2023/07/08 02:20:03;;;;;;;7.20;3.03;;;17.70;97.90;;;;;;5014311;28;20095;-75
2023/07/08 02:22:49;;;;;;;5.55;2.95;;;17.70;98.40;;;;;;5037584;28;20061;-75
2023/07/08 02:25:35;;;;;;;5.13;2.67;;;17.60;98.60;;;;;;5032009;28;20049;-75
2023/07/08 02:28:21;;;;;;;7.05;2.63;;;17.60;98.40;;;;;;5044157;28;20041;-75
2023/07/08 02:31:09;;;;;;;4.22;2.88;;;17.60;98.40;;;;;;5017947;28;20187;-75
2023/07/08 02:33:56;;;;;;;6.80;2.87;;;17.60;98.50;;;;;;5009847;28;20045;-75
2023/07/08 02:36:43;;;;;;;5.22;2.83;;;17.40;98.30;;;;;;5036620;28;20115;-75
2023/07/08 02:39:31;;;;;;;4.35;2.72;;;17.40;98.40;;;;;;5031813;28;20045;-76
2023/07/08 02:42:18;;;;;;;5.70;3.30;;;17.40;98.40;;;;;;5033514;28;20040;-76
2023/07/08 02:45:04;;;;;;;5.35;2.85;;;17.40;98.30;;;;;;5033992;28;20041;-76
2023/07/08 02:47:50;;;;;;;8.85;3.15;;;17.50;98.10;;;;;;5038748;28;20094;-77
2023/07/08 02:50:36;;;;;;;4.70;2.72;;;17.40;98.10;;;;;;5014123;28;20041;-77
2023/07/08 02:53:24;;;;;;;5.07;2.65;;;17.40;97.90;;;;;;5029206;28;20037;-77
2023/07/08 02:56:09;;;;;;;4.30;2.70;;;17.40;97.90;;;;;;5034068;28;20094;-77
2023/07/08 02:58:56;;;;;;;4.45;2.88;;;17.40;98.00;;;;;;5021172;28;20034;-77
2023/07/08 03:01:42;;;;;;;3.53;2.60;;;17.40;97.90;;;;;;5026543;28;20448;-77
2023/07/08 03:04:29;;;;;;;7.80;3.05;;;17.40;97.80;;;;;;5017120;28;20045;-76
2023/07/08 03:07:16;;;;;;;6.47;3.00;;;17.40;97.90;;;;;;5026562;28;20048;-77
2023/07/08 03:10:03;;;;;;;6.18;2.80;;;17.40;97.80;;;;;;5012718;28;20073;-76
2023/07/08 03:12:49;;;;;;;3.85;2.70;;;17.30;97.80;;;;;;5027130;28;20041;-76
2023/07/08 03:15:35;;;;;;;7.25;2.97;;;17.30;97.90;;;;;;5036032;28;20052;-77
2023/07/08 03:18:23;;;;;;;5.82;2.95;;;17.20;97.80;;;;;;5042058;28;20049;-77
2023/07/08 03:21:09;;;;;;;6.28;3.13;;;17.20;97.90;;;;;;5045904;28;20049;-77
2023/07/08 03:23:55;;;;;;;6.80;3.00;;;17.20;97.90;;;;;;5009454;28;20378;-77
2023/07/08 03:26:41;;;;;;;5.72;3.05;;;17.10;98.00;;;;;;5034003;28;20060;-78
2023/07/08 03:29:27;;;;;;;5.50;3.05;;;17.20;98.10;;;;;;5045363;28;20041;-77
2023/07/08 03:32:13;;;;;;;5.25;3.30;;;17.20;98.00;;;;;;5030957;28;20373;-77
2023/07/08 03:35:01;;;;;;;5.22;3.08;;;17.20;98.10;;;;;;5042181;28;20044;-77
2023/07/08 03:37:47;;;;;;;6.78;3.25;;;17.10;98.20;;;;;;5026489;28;20340;-77
2023/07/08 03:40:33;;;;;;;6.85;3.10;;;17.10;98.30;;;;;;5014631;28;20041;-76
2023/07/08 03:43:19;;;;;;;4.55;2.83;;;17.10;98.40;;;;;;5015470;28;20049;-76
2023/07/08 03:46:07;;;;;;;8.68;3.30;;;17.10;98.40;;;;;;5034556;28;20116;-76
2023/07/08 03:48:53;;;;;;;6.65;3.30;;;17.10;98.30;;;;;;5038783;28;20038;-77
2023/07/08 03:51:40;;;;;;;6.50;3.15;;;17.10;98.60;;;;;;5024129;28;20034;-76
2023/07/08 03:54:26;;;;;;;6.40;3.40;;;17.00;98.60;;;;;;5039425;28;20191;-77
2023/07/08 03:57:12;;;;;;;5.00;2.88;;;17.00;98.60;;;;;;5041470;28;20044;-77
2023/07/08 03:59:58;;;;;;;7.07;3.20;;;17.00;98.60;;;;;;5035870;28;20433;-76
2023/07/08 04:02:45;;;;;;;5.30;3.00;;;17.00;98.50;;;;;;5010187;28;20049;-77
2023/07/08 04:05:31;;;;;;;4.70;3.22;;;17.00;98.70;;;;;;5033178;28;20045;-77
2023/07/08 04:08:17;;;;;;;6.32;3.33;;;17.00;98.70;;;;;;5049982;28;20037;-76
2023/07/08 04:11:03;;;;;;;6.47;3.42;;;17.00;98.70;;;;;;5026437;28;20037;-77
2023/07/08 04:13:49;;;;;;;6.95;3.22;;;17.10;98.50;;;;;;5038994;28;20602;-76
2023/07/08 04:16:45;;;;;;;5.07;3.30;;;17.00;98.60;;;;;;5021789;28;20080;-76
2023/07/08 04:19:31;;;;;;;5.38;3.30;;;17.10;98.70;;;;;;5033026;28;20037;-76
2023/07/08 04:22:19;;;;;;;6.40;3.65;;;17.10;98.60;;;;;;5044444;28;20087;-77
2023/07/08 04:25:05;;;;;;;7.43;3.67;;;17.10;98.90;;;;;;5022307;28;20056;-77
2023/07/08 04:27:52;;;;;;;6.15;3.42;;;17.10;99.20;;;;;;5011082;28;20466;-76
2023/07/08 04:30:41;;;;;;;4.72;3.30;;;17.10;99.10;;;;;;5041282;28;20674;-77
2023/07/08 04:33:26;;;;;;;5.93;3.70;;;17.10;99.20;;;;;;5020430;28;20038;-77
2023/07/08 04:36:13;;;;;;;6.10;3.58;;;17.10;99.10;;;;;;5010430;28;20038;-76
2023/07/08 04:38:59;;;;;;;4.70;3.42;;;17.10;99.20;;;;;;5038119;28;20076;-75
2023/07/08 04:41:45;;;;;;;5.55;3.65;;;17.10;99.30;;;;;;5022800;28;20040;-75
2023/07/08 04:44:32;;;;;;;6.13;3.67;;;17.20;99.30;;;;;;5020810;28;20397;-75
2023/07/08 04:47:20;;;;;;;7.70;3.85;;;17.20;99.50;;;;;;5029058;28;20880;-78
2023/07/08 04:50:06;;;;;;;6.85;3.65;;;17.20;99.60;;;;;;5043090;28;20088;-76
2023/07/08 04:52:52;;;;;;;5.32;3.47;;;17.30;99.40;;;;;;5035375;28;20042;-76
2023/07/08 04:55:42;;;;;;;11.75;4.40;;;17.30;99.40;;;;;;5047325;28;20466;-76
2023/07/08 04:58:28;;;;;;;6.30;3.90;;;17.30;99.50;;;;;;5015592;28;20045;-77
2023/07/08 05:01:14;;;;;;;8.85;3.90;;;17.40;99.50;;;;;;5044505;28;20099;-76
2023/07/08 05:04:00;;;;;;;4.90;3.72;;;17.40;99.50;;;;;;5044672;28;20467;-76
2023/07/08 05:06:46;;;;;;;6.65;3.63;;;17.50;99.50;;;;;;5015944;28;20715;-76
2023/07/08 05:09:32;;;;;;;7.25;4.07;;;17.50;99.50;;;;;;5041596;28;20071;-76
2023/07/08 05:12:18;;;;;;;10.00;3.83;;;17.60;99.50;;;;;;5040020;28;20362;-77
2023/07/08 05:15:05;;;;;;;8.82;3.63;;;17.60;99.50;;;;;;5022264;28;20041;-77
2023/07/08 05:17:51;;;;;;;7.45;3.70;;;17.70;99.60;;;;;;5042362;28;20033;-76
2023/07/08 05:20:37;;;;;;;5.75;4.20;;;17.70;99.60;;;;;;5046129;28;20521;-76
2023/07/08 05:23:24;;;;;;;6.15;3.92;;;17.80;99.60;;;;;;5041205;28;20145;-76
2023/07/08 05:26:13;;;;;;;4.30;3.42;;;17.80;99.70;;;;;;5033150;28;20054;-77
2023/07/08 05:28:59;;;;;;;9.27;3.60;;;17.90;99.80;;;;;;5028058;28;20785;-77
2023/07/08 05:31:45;;;;;;;6.43;4.00;;;18.00;99.90;;;;;;5031617;28;20043;-75
2023/07/08 05:34:31;;;;;;;6.00;3.90;;;18.00;99.90;;;;;;5042226;28;20050;-77
2023/07/08 05:37:21;;;;;;;4.80;3.67;;;18.10;99.90;;;;;;5042303;28;20506;-76
2023/07/08 05:40:10;;;;;;;6.18;3.63;;;18.10;99.90;;;;;;5028989;28;20175;-76
2023/07/08 05:42:56;;;;;;;5.63;3.80;;;18.20;99.90;;;;;;5011435;28;20049;-77
2023/07/08 05:45:42;;;;;;;6.70;3.80;;;18.30;99.90;;;;;;5030079;28;20045;-77
2023/07/08 05:48:28;;;;;;;6.78;4.07;;;18.30;99.90;;;;;;5025702;28;20075;-77
2023/07/08 05:51:14;;;;;;;5.82;3.60;;;18.40;99.90;;;;;;5021311;28;20048;-77
2023/07/08 05:54:00;;;;;;;5.60;3.67;;;18.40;99.90;;;;;;5040613;28;20048;-76
2023/07/08 05:56:47;;;;;;;7.90;3.72;;;18.50;99.90;;;;;;5045062;28;20456;-76
2023/07/08 05:59:33;;;;;;;4.97;3.50;;;18.60;99.90;;;;;;5023756;28;20048;-75
2023/07/08 06:02:21;;;;;;;8.40;3.50;;;18.60;99.90;;;;;;5026199;28;20045;-75
2023/07/08 06:05:08;;;;;;;4.65;3.50;;;18.70;99.90;;;;;;5028376;28;20041;-75
2023/07/08 06:07:54;;;;;;;7.00;3.58;;;18.70;99.90;;;;;;5037991;28;20033;-75
2023/07/08 06:10:44;;;;;;;7.60;3.88;;;18.90;99.90;;;;;;5024559;28;20048;-74
2023/07/08 06:13:31;;;;;;;6.03;3.90;;;18.90;99.80;;;;;;5038695;28;20040;-77
2023/07/08 06:16:17;;;;;;;5.22;3.55;;;18.90;99.90;;;;;;5033243;28;20029;-77
2023/07/08 06:19:03;;;;;;;5.10;3.95;;;19.10;99.80;;;;;;5030200;28;20037;-77
2023/07/08 06:21:50;;;;;;;5.20;3.55;;;19.10;99.30;;;;;;5009508;28;20048;-77
2023/07/08 06:24:36;;;;;;;5.85;3.60;;;19.20;99.00;;;;;;5045680;28;20049;-77
2023/07/08 06:27:22;;;;;;;6.00;3.33;;;19.30;98.80;;;;;;5008854;28;20104;-79
2023/07/08 06:30:08;;;;;;;5.78;3.42;;;19.40;98.50;;;;;;5038222;28;20087;-78
2023/07/08 06:32:54;;;;;;;8.07;3.80;;;19.50;98.40;;;;;;5032808;28;20592;-76
2023/07/08 06:35:41;;;;;;;8.23;3.53;;;19.50;98.20;;;;;;5024836;28;20072;-77
2023/07/08 06:38:27;;;;;;;6.82;3.65;;;19.60;98.10;;;;;;5041853;28;20036;-77
2023/07/08 06:41:13;;;;;;;7.00;3.42;;;19.70;97.90;;;;;;5025233;28;20068;-77
2023/07/08 06:43:59;;;;;;;6.88;3.65;;;19.80;97.90;;;;;;5018076;28;20041;-77
2023/07/08 06:46:45;;;;;;;7.43;3.70;;;19.90;97.80;;;;;;5039753;28;20537;-77
2023/07/08 06:49:31;;;;;;;5.32;3.70;;;19.90;97.60;;;;;;5025878;28;20081;-77
2023/07/08 06:52:17;;;;;;;6.47;3.83;;;20.00;97.70;;;;;;5022849;28;20044;-77
2023/07/08 06:55:07;;;;;;;7.40;3.50;;;20.20;97.80;;;;;;5038124;28;20114;-76
2023/07/08 06:57:53;;;;;;;6.40;4.05;;;20.30;97.90;;;;;;5037220;28;20581;-76
2023/07/08 07:00:42;;;;;;;5.72;3.50;;;20.30;97.60;;;;;;5031028;28;20074;-77
2023/07/08 07:03:28;;;;;;;6.53;3.75;;;20.40;97.60;;;;;;5025084;28;20047;-77
2023/07/08 07:06:14;;;;;;;6.88;3.30;;;20.40;97.70;;;;;;5026425;28;20037;-77
2023/07/08 07:09:00;;;;;;;6.95;3.30;;;20.50;97.50;;;;;;5012246;28;20706;-77
2023/07/08 07:11:46;;;;;;;8.80;3.63;;;20.60;97.20;;;;;;5027619;28;20037;-77
2023/07/08 07:14:33;;;;;;;5.85;3.22;;;20.60;97.40;;;;;;5045621;28;20049;-77
2023/07/08 07:17:22;;;;;;;4.75;3.78;;;20.70;97.20;;;;;;5026109;28;20037;-77
2023/07/08 07:20:08;;;;;;;6.72;3.78;;;20.80;97.20;;;;;;5026986;28;20123;-77
2023/07/08 07:22:54;;;;;;;8.30;4.68;;;20.90;97.20;;;;;;5026405;28;20142;-76
2023/07/08 07:25:41;;;;;;;5.37;4.10;;;20.90;97.00;;;;;;5019066;28;20056;-78
2023/07/08 07:28:27;;;;;;;6.13;3.67;;;21.10;97.00;;;;;;5027205;28;20256;-78
2023/07/08 07:31:13;;;;;;;8.63;4.22;;;21.20;96.90;;;;;;5037966;28;20037;-77
2023/07/08 07:34:00;;;;;;;5.80;4.10;;;21.20;96.90;;;;;;5036772;28;20444;-76
2023/07/08 07:36:46;;;;;;;5.20;3.60;;;21.30;96.80;;;;;;5034291;28;20531;-77
2023/07/08 07:39:32;;;;;;;7.50;3.65;;;21.30;96.70;;;;;;5049520;28;20067;-77
2023/07/08 07:42:19;;;;;;;7.32;3.95;;;21.50;96.90;;;;;;5036276;28;20336;-77
2023/07/08 07:45:05;;;;;;;5.85;3.67;;;21.60;96.40;;;;;;5030363;28;20041;-79
2023/07/08 07:47:51;;;;;;;5.68;3.30;;;21.70;96.40;;;;;;5042172;28;20048;-80
2023/07/08 07:50:38;;;;;;;6.15;3.60;;;21.70;96.50;;;;;;5023618;28;20033;-78
2023/07/08 07:53:24;;;;;;;8.93;4.07;;;21.90;96.20;;;;;;5020125;28;20034;-78
2023/07/08 07:56:10;;;;;;;4.78;3.38;;;21.90;96.30;;;;;;5034301;28;20052;-77
2023/07/08 07:58:56;;;;;;;4.72;3.25;;;22.10;96.00;;;;;;5019350;28;20102;-78
2023/07/08 08:01:42;;;;;;;7.03;3.72;;;22.20;95.50;;;;;;5021481;28;20045;-77
2023/07/08 08:04:28;;;;;;;7.03;3.80;;;22.20;95.70;;;;;;5034052;28;20440;-79
2023/07/08 08:07:14;;;;;;;6.63;3.72;;;22.40;95.60;;;;;;5016287;28;20038;-78
2023/07/08 08:10:00;;;;;;;8.35;3.78;;;22.40;95.60;;;;;;5015417;28;20074;-79
2023/07/08 08:12:48;;;;;;;7.53;4.57;;;22.50;95.10;;;;;;5028698;28;20075;-78
2023/07/08 08:15:34;;;;;;;;;;;22.50;95.40;;;;;;5031533;28;20098;-79
2023/07/08 08:18:20;;;;;;;6.22;3.58;;;22.70;94.10;;;;;;5065439;28;20008;-77
2023/07/08 08:21:06;;;;;;;4.45;3.38;;;22.70;94.40;;;;;;5040710;28;20079;-78
2023/07/08 08:23:52;;;;;;;6.25;4.03;;;22.80;94.10;;;;;;5028165;28;20111;-78
2023/07/08 08:26:39;;;;;;;6.00;3.70;;;22.90;94.50;;;;;;5052322;28;20067;-79
2023/07/08 08:29:25;;;;;;;5.25;3.83;;;23.10;94.80;;;;;;5037392;28;20034;-79
2023/07/08 08:32:11;;;;;;;9.98;3.65;;;23.10;94.70;;;;;;5025286;28;20358;-78
2023/07/08 08:34:57;;;;;;;6.03;3.63;;;23.10;94.60;;;;;;5047474;28;20100;-79
2023/07/08 08:37:43;;;;;;;5.68;3.67;;;23.20;94.30;;;;;;5030439;28;20076;-77
2023/07/08 08:40:29;;;;;;;6.90;3.40;;;23.30;94.40;;;;;;5031404;28;20037;-79
2023/07/08 08:43:18;;;;;;;7.10;3.80;;;23.40;93.50;;;;;;5041576;28;20049;-78
2023/07/08 08:46:12;;;;;;;6.53;3.55;;;23.60;94.10;;;;;;5020827;28;20053;-78
2023/07/08 08:49:18;;;;;;;6.20;3.60;;;23.60;94.10;;;;;;5014473;28;20068;-78
2023/07/08 08:52:04;;;;;;;5.88;3.83;;;23.60;94.40;;;;;;5048267;28;20036;-77
2023/07/08 08:54:51;;;;;;;5.38;3.50;;;23.60;94.20;;;;;;5024499;28;20048;-78
2023/07/08 08:57:58;;;;;;;5.78;3.17;;;23.70;93.50;;;;;;5021659;28;20045;-77
2023/07/08 09:00:56;;;;;;;6.95;3.50;;;23.90;93.90;;;;;;5029308;28;20077;-77
2023/07/08 09:04:12;;;;;;;5.75;3.42;;;23.80;94.10;;;;;;5014106;28;20037;-78
2023/07/08 09:07:06;;;;;;;6.57;3.55;;;23.80;93.90;;;;;;5030635;28;20044;-79
2023/07/08 09:10:10;;;;;;;6.13;3.70;;;24.00;93.50;;;;;;5040143;28;20147;-78
2023/07/08 09:12:56;;;;;;;5.65;3.58;;;24.00;93.20;;;;;;5020484;28;20422;-78
2023/07/08 09:15:42;;;;;;;6.07;3.33;;;24.10;93.80;;;;;;5019407;28;20045;-78
2023/07/08 09:18:33;;;;;;;10.07;3.90;;;24.20;93.40;;;;;;5031213;28;20044;-78
2023/07/08 09:21:21;;;;;;;4.55;3.70;;;24.40;92.80;;;;;;5022995;28;20106;-78
2023/07/08 09:24:27;;;;;;;8.88;3.35;;;24.60;92.40;;;;;;5021945;28;20064;-76
2023/07/08 09:27:13;;;;;;;5.45;3.90;;;24.50;92.40;;;;;;5030877;28;20037;-77
2023/07/08 09:30:00;;;;;;;6.72;3.80;;;24.50;92.70;;;;;;5042637;28;20374;-78
2023/07/08 09:32:46;;;;;;;5.25;3.50;;;24.60;91.80;;;;;;5023608;28;20128;-79
2023/07/08 09:35:43;;;;;;;7.80;3.63;;;24.60;92.70;;;;;;5037905;28;20143;-78
2023/07/08 09:38:29;;;;;;;5.68;3.40;;;24.70;92.60;;;;;;5038547;28;20662;-79
2023/07/08 09:41:34;;;;;;;5.38;3.40;;;24.70;91.90;;;;;;5028490;28;20029;-79
2023/07/08 09:44:29;;;;;;;6.45;3.65;;;25.10;90.40;;;;;;5028097;28;20040;-79
2023/07/08 09:47:36;;;;;;;5.35;3.83;;;24.90;91.50;;;;;;5032369;28;20045;-80
2023/07/08 09:50:27;;;;;;;7.18;3.47;;;24.90;90.60;;;;;;5024849;28;20073;-79
2023/07/08 09:53:14;;;;;;;5.68;3.47;;;25.00;90.70;;;;;;5043856;28;20041;-79
2023/07/08 09:56:01;;;;;;;9.57;3.60;;;25.00;90.60;;;;;;5035009;28;20045;-79
2023/07/08 09:58:49;;;;;;;5.82;3.10;;;25.30;90.40;;;;;;5040015;28;20045;-79
2023/07/08 10:01:35;;;;;;;13.85;3.75;;;25.20;90.30;;;;;;5036709;28;20087;-79
2023/07/08 10:04:24;;;;;;;5.43;3.40;;;25.30;89.20;;;;;;5035597;28;20041;-80
2023/07/08 10:07:12;;;;;;;5.10;3.45;;;25.30;90.50;;;;;;5025713;28;20363;-79
2023/07/08 10:10:00;;;;;;;7.13;3.50;;;25.30;91.10;;;;;;5026151;28;20052;-81
2023/07/08 10:13:03;;;;;;;4.22;2.80;;;25.40;89.70;;;;;;5019708;28;20033;-78
2023/07/08 10:16:00;;;;;;;6.10;3.22;;;25.50;90.00;;;;;;5030855;28;20056;-79
2023/07/08 10:18:46;;;;;;;7.78;3.28;;;25.50;88.10;;;;;;5014732;28;20051;-78
2023/07/08 10:21:48;;;;;;;5.47;3.22;;;25.60;88.90;;;;;;5034580;28;20087;-77
2023/07/08 10:24:37;;;;;;;6.85;3.40;;;25.50;90.00;;;;;;5041560;28;20152;-79
2023/07/08 10:27:45;;;;;;;4.85;3.30;;;25.80;89.50;;;;;;5033867;28;20037;-78
2023/07/08 10:30:54;;;;;;;6.05;3.30;;;26.00;87.90;;;;;;5041576;28;20413;-77
2023/07/08 10:33:59;;;;;;;5.85;3.15;;;25.90;87.70;;;;;;5041049;28;20187;-77
2023/07/08 10:36:48;;;;;;;4.38;3.15;;;25.90;85.90;;;;;;5052815;28;20048;-78
2023/07/08 10:39:46;;;;;;;6.03;2.80;;;26.10;86.10;;;;;;5048867;28;20048;-77
2023/07/08 10:42:53;;;;;;;5.22;3.42;;;26.00;87.00;;;;;;5047191;28;20124;-77
2023/07/08 10:45:55;;;;;;;;;;;26.20;87.00;;;;;;5021430;28;20109;-77
2023/07/08 10:49:08;;;;;;;8.30;3.47;;;26.10;85.90;;;;;;5041076;28;19913;-77
2023/07/08 10:52:26;;;;;;;5.82;3.00;;;26.10;87.30;;;;;;5042007;28;20039;-77
2023/07/08 10:55:37;;;;;;;4.30;2.97;;;26.20;83.10;;;;;;5048970;28;20049;-77
2023/07/08 10:58:41;;;;;;;4.95;3.00;;;26.20;85.90;;;;;;5038095;28;20041;-79
2023/07/08 11:01:46;;;;;;;5.22;3.30;;;26.30;86.10;;;;;;5040487;28;20045;-78
2023/07/08 11:05:05;;;;;;;5.70;3.03;;;26.40;85.10;;;;;;5037288;28;20386;-78
2023/07/08 11:08:01;;;;;;;5.03;2.92;;;26.50;83.60;;;;;;5046492;28;20045;-78
2023/07/08 11:11:17;;;;;;;4.57;2.85;;;26.40;84.20;;;;;;5013021;28;20354;-77
2023/07/08 11:14:06;;;;;;;5.55;3.15;;;26.40;84.90;;;;;;5031517;28;20041;-79
2023/07/08 11:17:02;;;;;;;5.97;3.33;;;26.50;83.40;;;;;;5031900;28;20091;-77
2023/07/08 11:20:17;;;;;;;7.35;3.30;;;26.60;83.70;;;;;;5038189;28;20044;-79
2023/07/08 11:23:32;;;;;;;5.97;3.40;;;26.70;80.90;;;;;;5022836;28;20048;-77
2023/07/08 11:26:38;;;;;;;7.10;3.50;;;26.80;83.70;;;;;;5048691;28;20653;-77
2023/07/08 11:29:35;;;;;;;6.68;3.60;;;26.80;83.00;;;;;;5025169;28;20303;-78
2023/07/08 11:32:22;;;;;;;5.20;3.77;;;27.00;81.00;;;;;;5018475;28;20041;-79
2023/07/08 11:35:18;;;;;;;5.32;3.00;;;27.00;81.80;;;;;;5032403;28;20124;-77
2023/07/08 11:38:04;;;;;;;11.77;3.47;;;27.10;80.40;;;;;;5021507;28;20053;-78
2023/07/08 11:41:11;;;;;;;5.43;3.13;;;27.10;81.00;;;;;;5044297;28;20049;-78
2023/07/08 11:44:03;;;;;;;5.10;2.97;;;27.20;80.60;;;;;;5039869;28;20041;-78
2023/07/08 11:46:54;;;;;;;6.15;3.30;;;27.20;81.80;;;;;;5041290;28;20204;-80
2023/07/08 11:49:40;;;;;;;6.00;3.70;;;27.20;82.30;;;;;;5035224;28;20098;-78
2023/07/08 11:52:26;;;;;;;6.20;3.40;;;27.20;82.60;;;;;;5040814;28;20127;-78
2023/07/08 11:55:15;;;;;;;5.50;3.15;;;27.20;82.80;;;;;;5012739;28;20397;-78
2023/07/08 11:58:01;;;;;;;8.07;3.63;;;27.40;81.00;;;;;;5036887;28;20048;-79
2023/07/08 12:00:59;;;;;;;4.80;2.90;;;27.40;80.30;;;;;;5036514;28;20069;-80
2023/07/08 12:03:49;;;;;;;7.75;3.17;;;27.50;79.10;;;;;;5040165;28;20033;-78
2023/07/08 12:06:35;;;;;;;6.18;3.47;;;27.50;80.70;;;;;;5022406;28;20098;-78
2023/07/08 12:09:30;;;;;;;4.53;3.40;;;27.60;77.30;;;;;;5047545;28;20083;-76
2023/07/08 12:12:24;;;;;;;6.18;3.28;;;28.00;76.40;;;;;;5024249;28;20105;-76
2023/07/08 12:15:10;;;;;;;6.90;3.75;;;28.40;75.60;;;;;;5028962;28;20041;-77
2023/07/08 12:18:18;;;;;;;6.05;3.22;;;28.90;75.80;;;;;;5044746;28;20037;-75
2023/07/08 12:21:04;;;;;;;5.68;3.40;;;29.20;71.00;;;;;;5038722;28;20048;-75
2023/07/08 12:23:50;;;;;;;6.47;3.20;;;29.40;71.10;;;;;;5009437;28;20068;-76
2023/07/08 12:26:36;;;;;;;4.40;3.10;;;29.40;65.90;;;;;;5027830;28;20140;-78
2023/07/08 12:29:22;;;;;;;6.20;3.40;;;29.40;68.70;;;;;;5046103;28;20041;-76
2023/07/08 12:32:12;;;;;;;7.10;3.60;;;29.60;68.60;;;;;;5016384;28;20041;-78
2023/07/08 12:34:58;;;;;;;6.32;2.95;;;29.70;67.80;;;;;;5027473;28;20397;-77
2023/07/08 12:37:43;;;;;;;7.30;3.70;;;29.90;67.40;;;;;;5015986;28;20045;-75
2023/07/08 12:40:30;;;;;;;6.72;3.75;;;30.00;64.20;;;;;;5033310;28;20131;-76
2023/07/08 12:43:16;;;;;;;4.90;3.38;;;30.00;65.20;;;;;;5045630;28;20100;-77
2023/07/08 12:46:03;;;;;;;4.47;3.20;;;30.00;64.80;;;;;;5035302;28;20048;-77
2023/07/08 12:48:49;;;;;;;4.78;3.67;;;30.10;64.10;;;;;;5029062;28;20271;-78
2023/07/08 12:51:35;;;;;;;6.15;3.78;;;30.20;64.00;;;;;;5033583;28;20076;-77
2023/07/08 12:54:22;;;;;;;6.30;3.30;;;30.30;66.50;;;;;;5033065;28;20041;-76
2023/07/08 12:57:08;;;;;;;5.70;3.30;;;30.50;63.00;;;;;;5033266;28;20150;-77
2023/07/08 12:59:55;;;;;;;10.63;4.00;;;30.60;63.60;;;;;;5025067;28;20067;-77
2023/07/08 13:02:44;;;;;;;5.40;3.72;;;30.60;64.00;;;;;;5038420;28;20303;-77
2023/07/08 13:05:32;;;;;;;4.75;3.40;;;30.70;64.60;;;;;;5019515;28;20041;-76
2023/07/08 13:08:23;;;;;;;6.15;4.10;;;30.50;59.80;;;;;;5019470;28;20045;-77
2023/07/08 13:11:11;;;;;;;5.68;3.58;;;30.60;60.80;;;;;;5026288;28;20041;-76
2023/07/08 13:14:01;;;;;;;7.22;3.50;;;30.70;60.50;;;;;;5034234;28;20119;-76
2023/07/08 13:16:49;;;;;;;5.22;3.35;;;30.80;59.20;;;;;;5042569;28;20036;-76
2023/07/08 13:19:35;;;;;;;7.95;4.00;;;30.80;61.50;;;;;;5015965;28;20041;-76
2023/07/08 13:22:21;;;;;;;6.53;4.30;;;30.90;58.10;;;;;;5023750;28;20101;-77
2023/07/08 13:25:13;;;;;;;6.82;3.97;;;31.10;59.90;;;;;;5024666;28;20052;-76
2023/07/08 13:28:20;;;;;;;6.65;3.90;;;31.10;58.70;;;;;;5035923;28;20043;-76
2023/07/08 13:31:24;;;;;;;6.65;3.50;;;31.20;59.60;;;;;;5027902;28;20045;-77
2023/07/08 13:34:16;;;;;;;6.18;3.80;;;31.30;59.00;;;;;;5020708;28;20441;-76
2023/07/08 13:37:03;;;;;;;5.00;3.70;;;31.40;59.60;;;;;;5029139;28;20071;-77
2023/07/08 13:39:52;;;;;;;7.30;3.42;;;31.10;56.10;;;;;;5049829;28;20040;-77
2023/07/08 13:42:38;;;;;;;4.75;3.35;;;31.20;58.40;;;;;;5033827;28;20636;-76
2023/07/08 13:45:27;;;;;;;5.72;3.55;;;31.30;57.60;;;;;;5046261;28;20052;-77
2023/07/08 13:48:13;;;;;;;6.40;3.75;;;31.40;58.20;;;;;;5030405;28;20044;-77
2023/07/08 13:51:02;;;;;;;4.97;3.78;;;31.40;57.70;;;;;;5037803;28;20122;-77
2023/07/08 13:53:54;;;;;;;6.00;3.90;;;31.50;58.20;;;;;;5034885;28;20131;-78
2023/07/08 13:56:40;;;;;;;4.15;3.40;;;31.60;57.90;;;;;;5014801;28;20045;-78
2023/07/08 13:59:26;;;;;;;7.88;5.05;;;31.60;56.40;;;;;;5054006;28;20433;-77
2023/07/08 14:02:18;;;;;;;6.85;4.00;;;31.70;58.30;;;;;;5031791;28;20042;-76
2023/07/08 14:05:09;;;;;;;7.70;3.67;;;31.70;57.10;;;;;;5043125;28;20080;-76
2023/07/08 14:07:55;;;;;;;4.80;3.75;;;31.70;56.50;;;;;;5044159;28;20105;-78
2023/07/08 14:10:41;;;;;;;7.60;4.00;;;31.90;58.60;;;;;;5024824;28;20040;-76
2023/07/08 14:13:27;;;;;;;4.78;3.25;;;32.00;57.10;;;;;;5024350;28;20041;-75
2023/07/08 14:16:28;;;;;;;7.85;4.25;;;32.30;56.90;;;;;;5041683;28;20045;-77
2023/07/08 14:19:36;;;;;;;5.25;3.38;;;32.20;56.80;;;;;;5026793;28;20051;-78
2023/07/08 14:22:24;;;;;;;6.07;3.67;;;32.20;56.40;;;;;;5038317;28;20048;-77
2023/07/08 14:25:13;;;;;;;7.93;3.53;;;32.10;56.90;;;;;;5022497;28;20056;-76
2023/07/08 14:27:59;;;;;;;4.65;3.72;;;32.30;56.70;;;;;;5043909;28;20038;-77
2023/07/08 14:30:46;;;;;;;8.18;3.92;;;32.30;56.70;;;;;;5020468;28;20044;-78
2023/07/08 14:33:32;;;;;;;6.78;3.92;;;32.30;55.20;;;;;;5033848;28;20358;-77
2023/07/08 14:36:18;;;;;;;7.65;4.28;;;32.30;54.40;;;;;;5022586;28;20120;-79
2023/07/08 14:39:15;;;;;;;5.15;3.70;;;32.40;58.10;;;;;;5038098;28;20044;-77
2023/07/08 14:42:01;;;;;;;5.88;3.67;;;32.30;56.00;;;;;;5043756;28;20448;-79
2023/07/08 14:44:52;;;;;;;4.78;3.83;;;32.00;54.30;;;;;;5020118;28;20072;-79